Time;durP1;ratioP1;P1;durP2;ratioP2;P2;SDS_P1;SDS_P2;PMS_P1;PMS_P2;Temp;Humidity;BMP_temperature;BMP_pressure;BME280_temperature;BME280_humidity;BME280_pressure;Samples;Min_cycle;Max_cycle;Signal;HPM_P1;HPM_P2
2022/08/24 00:01:02;;;;;;;13.48;12.10;;;;;;;19.49;100.00;101646.56;5088596;28;20020;-67
2022/08/24 00:03:28;;;;;;;13.15;12.15;;;;;;;19.47;100.00;101643.94;5088155;28;20174;-67
2022/08/24 00:05:53;;;;;;;13.50;12.30;;;;;;;19.47;100.00;101645.66;5088316;28;20361;-67
2022/08/24 00:08:19;;;;;;;15.00;13.60;;;;;;;19.46;100.00;101643.91;5087385;28;20483;-67
2022/08/24 00:10:45;;;;;;;14.82;13.65;;;;;;;19.41;100.00;101636.88;5088331;28;20443;-68
2022/08/24 00:13:10;;;;;;;18.70;16.88;;;;;;;19.35;100.00;101642.09;5088266;28;20361;-68
2022/08/24 00:15:36;;;;;;;17.98;16.58;;;;;;;19.32;100.00;101642.03;5086071;28;20106;-69
2022/08/24 00:18:01;;;;;;;18.02;16.60;;;;;;;19.30;100.00;101649.06;5088186;28;20471;-69
2022/08/24 00:20:27;;;;;;;17.50;16.02;;;;;;;19.26;100.00;101652.53;5088107;28;20574;-68
2022/08/24 00:22:53;;;;;;;19.88;18.02;;;;;;;19.23;100.00;101652.50;5088112;28;20027;-68
2022/08/24 00:25:19;;;;;;;18.80;17.13;;;;;;;19.21;100.00;101649.88;5088079;28;20039;-68
2022/08/24 00:27:45;;;;;;;18.58;17.08;;;;;;;19.20;100.00;101653.34;5087679;28;20024;-69
2022/08/24 00:30:17;;;;;;;20.70;18.70;;;;;;;19.19;100.00;101651.59;5087273;28;20028;-69
2022/08/24 00:32:44;;;;;;;21.58;19.98;;;;;;;19.19;100.00;101660.34;5087755;28;20086;-68
2022/08/24 00:35:11;;;;;;;22.23;20.42;;;;;;;19.18;100.00;101663.84;5087413;28;20027;-68
2022/08/24 00:37:38;;;;;;;21.08;19.20;;;;;;;19.15;100.00;101661.19;5074355;28;20524;-67
2022/08/24 00:40:10;;;;;;;20.25;18.45;;;;;;;19.13;100.00;101662.91;5085983;28;20038;-68
2022/08/24 00:42:37;;;;;;;20.00;18.30;;;;;;;19.12;100.00;101658.56;5087204;28;20427;-67
2022/08/24 00:45:04;;;;;;;19.27;17.65;;;;;;;19.14;100.00;101659.41;5087777;28;20472;-68
2022/08/24 00:47:42;;;;;;;20.30;18.48;;;;;;;19.13;100.00;101652.41;5087405;28;20523;-68
2022/08/24 00:50:13;;;;;;;21.23;19.35;;;;;;;19.10;100.00;101652.38;5087558;28;20031;-68
2022/08/24 00:52:42;;;;;;;21.70;20.05;;;;;;;19.03;100.00;101658.41;5087369;28;20024;-69
2022/08/24 00:55:14;;;;;;;23.73;21.52;;;;;;;18.99;100.00;101654.00;5088124;28;20028;-68
2022/08/24 00:57:44;;;;;;;24.00;21.98;;;;;;;18.96;100.00;101654.81;5088179;28;20111;-68
2022/08/24 01:00:14;;;;;;;23.95;21.88;;;;;;;18.96;100.00;101658.34;5087272;28;20031;-68
2022/08/24 01:02:44;;;;;;;22.05;20.13;;;;;;;18.95;100.00;101663.59;5087658;28;20024;-67
2022/08/24 01:05:11;;;;;;;19.67;18.08;;;;;;;18.92;100.00;101659.19;5087880;28;20024;-67
2022/08/24 01:07:37;;;;;;;21.02;19.33;;;;;;;18.90;100.00;101666.19;5087764;28;20107;-67
2022/08/24 01:10:16;;;;;;;19.63;17.73;;;;;;;18.88;100.00;101667.91;5087638;28;20132;-68
2022/08/24 01:12:47;;;;;;;18.35;16.85;;;;;;;18.84;100.00;101661.75;5087368;28;20015;-68
2022/08/24 01:15:13;;;;;;;;;;;;;;;18.80;100.00;101653.78;5087956;28;20111;-68
2022/08/24 01:20:25;;;;;;;22.42;20.33;;;;;;;18.68;100.00;101647.56;5091379;28;20030;-67
2022/08/24 01:23:09;;;;;;;23.35;21.45;;;;;;;18.63;100.00;101656.25;5091391;28;20024;-67
2022/08/24 01:25:36;;;;;;;24.75;22.65;;;;;;;18.57;100.00;101657.94;5091897;28;20024;-68
2022/08/24 01:28:09;;;;;;;25.33;23.13;;;;;;;18.57;100.00;101657.06;5091605;28;20039;-67
2022/08/24 01:30:34;;;;;;;27.90;25.60;;;;;;;18.55;100.00;101659.66;5091472;28;20024;-68
2022/08/24 01:33:07;;;;;;;29.05;26.38;;;;;;;18.57;100.00;101665.81;5090668;28;20020;-68
2022/08/24 01:35:34;;;;;;;25.10;22.80;;;;;;;18.56;100.00;101663.19;5092095;28;20040;-67
2022/08/24 01:38:03;;;;;;;23.35;21.25;;;;;;;18.57;100.00;101663.19;5091006;28;20042;-67
2022/08/24 01:40:39;;;;;;;23.65;21.67;;;;;;;18.58;100.00;101658.84;5090697;28;20425;-67
2022/08/24 01:43:06;;;;;;;28.15;25.75;;;;;;;18.54;100.00;101657.91;5091333;28;20055;-67
2022/08/24 01:45:33;;;;;;;29.67;27.05;;;;;;;18.50;100.00;101656.09;5089809;28;20020;-67
2022/08/24 01:47:59;;;;;;;30.25;27.60;;;;;;;18.45;100.00;101648.19;5091242;28;20035;-67
2022/08/24 01:50:25;;;;;;;28.88;26.45;;;;;;;18.40;100.00;101643.75;5091333;28;20024;-68
2022/08/24 01:52:51;;;;;;;27.50;25.00;;;;;;;18.36;100.00;101648.06;5091046;28;20147;-68
2022/08/24 01:55:17;;;;;;;26.63;24.48;;;;;;;18.35;100.00;101646.28;5090413;28;20110;-68
2022/08/24 01:57:42;;;;;;;27.05;24.70;;;;;;;18.34;100.00;101649.78;5090944;28;20103;-67
2022/08/24 02:00:15;;;;;;;29.48;26.98;;;;;;;18.35;100.00;101654.16;5091231;28;20375;-67
2022/08/24 02:02:41;;;;;;;29.45;26.80;;;;;;;18.38;100.00;101646.34;5091184;28;20460;-67
2022/08/24 02:05:09;;;;;;;28.42;26.05;;;;;;;18.37;100.00;101644.56;5090638;28;20035;-67
2022/08/24 02:07:34;;;;;;;27.15;24.92;;;;;;;18.35;100.00;101648.91;5090613;28;20105;-67
2022/08/24 02:10:00;;;;;;;25.52;23.23;;;;;;;18.31;100.00;101649.75;5090651;28;20107;-67
2022/08/24 02:12:25;;;;;;;26.02;23.73;;;;;;;18.27;100.00;101653.19;5090585;28;20027;-68
2022/08/24 02:14:51;;;;;;;26.17;23.92;;;;;;;18.22;100.00;101651.38;5089833;28;20496;-67
2022/08/24 02:17:17;;;;;;;28.45;26.08;;;;;;;18.18;100.00;101649.59;5090476;28;20030;-67
2022/08/24 02:19:42;;;;;;;27.83;25.20;;;;;;;18.16;100.00;101651.31;5090808;28;20012;-67
2022/08/24 02:22:08;;;;;;;26.02;23.67;;;;;;;18.16;100.00;101655.69;5090618;28;20475;-67
2022/08/24 02:24:33;;;;;;;26.48;24.33;;;;;;;18.13;100.00;101652.13;5089937;28;20032;-68
2022/08/24 02:26:59;;;;;;;27.00;24.67;;;;;;;18.12;100.00;101655.63;5090413;28;20028;-67
2022/08/24 02:29:24;;;;;;;27.13;24.73;;;;;;;18.12;100.00;101665.22;5087331;28;20070;-68
2022/08/24 02:31:50;;;;;;;25.15;22.85;;;;;;;18.09;100.00;101662.56;5078257;28;20122;-68
2022/08/24 02:34:16;;;;;;;25.58;23.35;;;;;;;18.06;100.00;101659.91;5090074;28;20055;-67
2022/08/24 02:36:41;;;;;;;24.90;22.58;;;;;;;18.05;100.00;101669.50;5089806;28;20134;-67
2022/08/24 02:39:07;;;;;;;23.80;21.90;;;;;;;18.05;100.00;101668.59;5089976;28;20053;-68
2022/08/24 02:41:34;;;;;;;25.10;22.70;;;;;;;18.03;100.00;101672.94;5089768;28;20430;-67
2022/08/24 02:43:59;;;;;;;23.67;21.65;;;;;;;18.00;100.00;101677.31;5089801;28;20035;-67
2022/08/24 02:46:27;;;;;;;25.27;23.13;;;;;;;17.98;100.00;101673.78;5089749;28;20024;-68
2022/08/24 02:48:52;;;;;;;25.42;23.15;;;;;;;18.00;100.00;101682.56;5089344;28;20133;-67
2022/08/24 02:51:24;;;;;;;26.75;24.58;;;;;;;18.02;100.00;101679.06;5090015;28;20036;-68
2022/08/24 02:53:49;;;;;;;27.10;24.80;;;;;;;18.00;100.00;101668.56;5089752;28;20016;-67
2022/08/24 02:56:16;;;;;;;27.23;24.85;;;;;;;17.97;100.00;101676.38;5089865;28;20027;-67
2022/08/24 02:58:42;;;;;;;31.05;28.20;;;;;;;17.97;100.00;101677.25;5089510;28;20153;-68
2022/08/24 03:01:09;;;;;;;28.83;26.10;;;;;;;17.94;100.00;101666.72;5089674;28;20027;-67
2022/08/24 03:03:34;;;;;;;28.20;25.65;;;;;;;17.93;100.00;101672.84;5089440;28;20478;-67
2022/08/24 03:06:00;;;;;;;29.02;26.63;;;;;;;17.92;100.00;101670.19;5089648;28;20020;-68
2022/08/24 03:08:25;;;;;;;30.25;27.65;;;;;;;17.88;100.00;101674.50;5089564;28;20203;-67
2022/08/24 03:10:50;;;;;;;30.77;27.98;;;;;;;17.81;100.00;101659.56;5089140;28;20020;-68
2022/08/24 03:13:17;;;;;;;30.55;27.85;;;;;;;17.76;100.00;101664.72;5089450;28;20020;-67
2022/08/24 03:15:42;;;;;;;31.50;28.90;;;;;;;17.70;100.00;101662.88;5089198;28;20111;-67
2022/08/24 03:18:08;;;;;;;31.55;28.73;;;;;;;17.66;100.00;101661.06;5089333;28;20161;-67
2022/08/24 03:20:33;;;;;;;31.52;28.70;;;;;;;17.64;100.00;101663.69;5089726;28;20024;-68
2022/08/24 03:22:58;;;;;;;30.20;27.48;;;;;;;17.64;100.00;101668.03;5088577;28;20331;-67
2022/08/24 03:25:25;;;;;;;30.17;27.45;;;;;;;17.67;100.00;101662.81;5089339;28;20024;-68
2022/08/24 03:27:51;;;;;;;29.52;26.83;;;;;;;17.66;100.00;101661.06;5088858;28;20474;-67
2022/08/24 03:30:17;;;;;;;28.38;25.98;;;;;;;17.64;100.00;101661.06;5089717;28;20590;-67
2022/08/24 03:32:42;;;;;;;30.98;28.30;;;;;;;17.63;100.00;101668.88;5089489;28;20130;-67
2022/08/24 03:35:10;;;;;;;29.40;26.90;;;;;;;17.61;100.00;101660.97;5088830;28;20051;-67
2022/08/24 03:37:36;;;;;;;30.17;27.58;;;;;;;17.58;100.00;101652.19;5089005;28;20491;-68
2022/08/24 03:40:02;;;;;;;29.75;27.15;;;;;;;17.54;100.00;101656.50;5088767;28;20069;-67
2022/08/24 03:42:27;;;;;;;29.63;27.02;;;;;;;17.48;100.00;101652.06;5088534;28;20082;-67
2022/08/24 03:44:53;;;;;;;31.45;28.40;;;;;;;17.44;100.00;101650.25;5088450;28;20456;-67
2022/08/24 03:47:20;;;;;;;30.98;28.30;;;;;;;17.40;100.00;101656.28;5088721;28;20024;-67
2022/08/24 03:49:46;;;;;;;31.63;28.95;;;;;;;17.36;100.00;101657.13;5088907;28;20384;-67
2022/08/24 03:52:11;;;;;;;29.77;27.13;;;;;;;17.36;100.00;101651.88;5084255;28;20020;-67
2022/08/24 03:54:36;;;;;;;31.25;28.23;;;;;;;17.35;100.00;101656.22;5078739;28;20020;-68
2022/08/24 03:57:02;;;;;;;29.85;27.15;;;;;;;17.34;100.00;101658.81;5088401;28;20026;-68
2022/08/24 03:59:27;;;;;;;30.42;27.83;;;;;;;17.35;100.00;101658.84;5087987;28;20035;-67
2022/08/24 04:01:54;;;;;;;29.23;26.73;;;;;;;17.37;100.00;101662.38;5088629;28;20024;-67
2022/08/24 04:04:20;;;;;;;29.30;26.77;;;;;;;17.36;100.00;101662.34;5088245;28;20088;-67
2022/08/24 04:06:45;;;;;;;30.40;27.70;;;;;;;17.34;100.00;101664.91;5088525;28;20023;-68
2022/08/24 04:09:11;;;;;;;29.23;26.73;;;;;;;17.31;100.00;101663.97;5087826;28;20107;-68
2022/08/24 04:11:37;;;;;;;29.85;27.27;;;;;;;17.27;100.00;101663.94;5087590;28;20391;-68
2022/08/24 04:14:02;;;;;;;29.00;26.48;;;;;;;17.23;100.00;101670.00;5088001;28;20285;-68
2022/08/24 04:16:28;;;;;;;32.20;29.27;;;;;;;17.23;100.00;101671.72;5088183;28;20111;-67
2022/08/24 04:18:56;;;;;;;32.28;29.38;;;;;;;17.20;100.00;101669.91;5088310;28;20434;-67
2022/08/24 04:21:28;;;;;;;31.38;28.77;;;;;;;17.19;100.00;101672.53;5088293;28;20502;-67
2022/08/24 04:23:54;;;;;;;31.70;28.70;;;;;;;17.19;100.00;101676.03;5088240;28;20116;-67
2022/08/24 04:26:23;;;;;;;33.95;30.83;;;;;;;17.20;100.00;101674.31;5086817;28;20035;-67
2022/08/24 04:28:49;;;;;;;33.30;30.35;;;;;;;17.23;100.00;101688.34;5085885;28;20025;-67
2022/08/24 04:31:17;;;;;;;34.45;31.50;;;;;;;17.22;100.00;101675.19;5085937;28;20214;-66
2022/08/24 04:33:43;;;;;;;36.15;32.58;;;;;;;17.21;100.00;101684.78;5086630;28;20108;-67
2022/08/24 04:36:09;;;;;;;36.38;32.90;;;;;;;17.22;100.00;101680.41;5086102;28;20019;-66
2022/08/24 04:38:35;;;;;;;38.53;34.83;;;;;;;17.19;100.00;101686.50;5086152;28;20016;-67
2022/08/24 04:41:06;;;;;;;39.05;35.25;;;;;;;17.15;100.00;101688.19;5085683;28;20076;-66
2022/08/24 04:43:32;;;;;;;38.70;34.58;;;;;;;17.09;100.00;101681.94;5086906;28;20464;-67
2022/08/24 04:45:57;;;;;;;38.88;35.08;;;;;;;17.03;100.00;101685.31;5088327;28;20072;-67
2022/08/24 04:48:23;;;;;;;38.38;34.53;;;;;;;17.00;100.00;101686.13;5087666;28;20205;-67
2022/08/24 04:50:48;;;;;;;38.28;34.58;;;;;;;16.98;100.00;101687.81;5087762;28;20020;-67
2022/08/24 04:53:14;;;;;;;39.67;35.65;;;;;;;16.97;100.00;101680.84;5090948;28;20016;-67
2022/08/24 04:55:43;;;;;;;38.70;35.15;;;;;;;16.97;100.00;101686.06;5094558;28;20088;-67
2022/08/24 04:58:14;;;;;;;38.72;34.72;;;;;;;16.96;100.00;101689.56;5093856;28;20491;-67
2022/08/24 05:00:39;;;;;;;39.65;35.83;;;;;;;16.95;100.00;101689.50;5094686;28;20024;-67
2022/08/24 05:03:05;;;;;;;39.45;35.55;;;;;;;16.95;100.00;101687.78;5094443;28;20073;-67
2022/08/24 05:05:31;;;;;;;41.75;37.42;;;;;;;16.96;100.00;101693.91;5094437;28;20024;-67
2022/08/24 05:07:57;;;;;;;40.75;36.65;;;;;;;16.97;100.00;101699.16;5094505;28;20035;-68
2022/08/24 05:10:22;;;;;;;42.92;38.80;;;;;;;17.00;100.00;101696.59;5094210;28;20039;-68
2022/08/24 05:12:48;;;;;;;42.45;38.72;;;;;;;17.03;100.00;101693.16;5092631;28;20067;-66
2022/08/24 05:15:15;;;;;;;42.05;38.13;;;;;;;17.06;100.00;101695.81;5094891;28;20051;-67
2022/08/24 05:17:41;;;;;;;43.30;39.03;;;;;;;17.08;100.00;101693.22;5094529;28;20046;-67
2022/08/24 05:20:09;;;;;;;43.00;38.83;;;;;;;17.11;100.00;101694.22;5094296;28;20088;-67
2022/08/24 05:22:34;;;;;;;42.80;38.28;;;;;;;17.12;100.00;101698.59;5094562;28;20140;-67
2022/08/24 05:25:00;;;;;;;41.70;37.30;;;;;;;17.14;100.00;101693.41;5094282;28;20103;-67
2022/08/24 05:27:25;;;;;;;41.35;37.17;;;;;;;17.20;100.00;101698.72;5094225;28;20509;-66
2022/08/24 05:29:54;;;;;;;43.75;39.35;;;;;;;17.23;100.00;101704.03;5087642;28;20025;-67
2022/08/24 05:32:19;;;;;;;41.20;37.33;;;;;;;17.28;100.00;101704.13;5086313;28;20032;-67
2022/08/24 05:34:45;;;;;;;43.42;39.10;;;;;;;17.33;100.00;101705.06;5094205;28;20046;-67
2022/08/24 05:37:10;;;;;;;41.95;37.88;;;;;;;17.42;100.00;101708.69;5093974;28;20024;-67
2022/08/24 05:39:36;;;;;;;43.33;39.00;;;;;;;17.46;100.00;101711.41;5093574;28;20020;-67
2022/08/24 05:42:01;;;;;;;42.47;38.65;;;;;;;17.55;100.00;101709.78;5093781;28;20044;-66
2022/08/24 05:44:29;;;;;;;40.78;36.67;;;;;;;17.61;100.00;101717.78;5094059;28;20653;-68
2022/08/24 05:46:56;;;;;;;39.45;35.88;;;;;;;17.69;100.00;101715.25;5094189;28;20107;-67
2022/08/24 05:49:22;;;;;;;37.88;34.30;;;;;;;17.79;100.00;101717.16;5094585;28;20020;-68
2022/08/24 05:51:48;;;;;;;41.38;37.38;;;;;;;17.86;100.00;101716.41;5093350;28;20530;-67
2022/08/24 05:54:14;;;;;;;40.35;36.47;;;;;;;17.93;100.00;101712.16;5087166;28;20115;-67
2022/08/24 05:56:39;;;;;;;39.53;35.83;;;;;;;18.03;100.00;101707.03;5086318;28;20051;-67
2022/08/24 05:59:05;;;;;;;40.88;37.03;;;;;;;18.09;100.00;101702.78;5093954;28;20077;-67
2022/08/24 06:01:32;;;;;;;39.55;36.03;;;;;;;18.18;100.00;101706.41;5093523;28;20110;-67
2022/08/24 06:03:58;;;;;;;36.88;33.47;;;;;;;18.28;100.00;101707.41;5092372;28;20034;-67
2022/08/24 06:06:25;;;;;;;37.80;34.40;;;;;;;18.40;100.00;101710.22;5089550;28;20027;-67
2022/08/24 06:08:54;;;;;;;33.60;30.58;;;;;;;18.54;100.00;101707.78;5089805;28;20027;-67
2022/08/24 06:11:26;;;;;;;36.67;33.22;;;;;;;18.69;100.00;101714.94;5077083;28;20028;-68
2022/08/24 06:13:53;;;;;;;37.70;34.33;;;;;;;18.82;100.00;101707.19;5090044;28;20476;-67
2022/08/24 06:16:19;;;;;;;38.55;35.10;;;;;;;18.93;100.00;101710.84;5090388;28;20093;-67
2022/08/24 06:18:44;;;;;;;49.10;44.63;;;;;;;19.09;100.00;101718.88;5065954;28;20497;-67
2022/08/24 06:21:13;;;;;;;51.97;47.28;;;;;;;19.25;100.00;101726.97;5066566;28;20024;-67
2022/08/24 06:23:40;;;;;;;52.92;48.10;;;;;;;19.41;100.00;101731.47;5060648;28;20118;-68
2022/08/24 06:28:52;;;;;;;47.63;43.42;;;;;;;19.73;100.00;101732.63;5061990;28;20089;-67
2022/08/24 06:31:18;;;;;;;44.78;40.63;;;;;;;19.90;100.00;101734.50;5068732;28;20016;-67
2022/08/24 06:33:44;;;;;;;43.10;39.40;;;;;;;20.04;100.00;101737.22;5065712;28;20032;-67
2022/08/24 06:36:09;;;;;;;41.55;37.95;;;;;;;20.20;100.00;101742.63;5065639;28;20024;-67
2022/08/24 06:38:34;;;;;;;40.63;37.33;;;;;;;20.34;100.00;101740.94;5066924;28;20017;-67
2022/08/24 06:41:00;;;;;;;42.50;38.95;;;;;;;20.50;100.00;101731.38;5080746;28;20024;-66
2022/08/24 06:43:25;;;;;;;40.45;37.10;;;;;;;20.66;100.00;101741.06;5066568;28;20454;-68
2022/08/24 06:45:53;;;;;;;41.50;37.80;;;;;;;20.78;100.00;101746.38;5064112;28;20435;-67
2022/08/24 06:48:19;;;;;;;39.95;36.47;;;;;;;20.90;100.00;101740.31;5068757;28;20020;-67
2022/08/24 06:50:46;;;;;;;41.90;38.25;;;;;;;21.03;100.00;101735.09;5068149;28;20619;-67
2022/08/24 06:53:13;;;;;;;40.15;36.65;;;;;;;21.15;100.00;101740.41;5067275;28;20024;-67
2022/08/24 06:55:44;;;;;;;37.55;34.42;;;;;;;21.30;100.00;101736.03;5054244;28;20044;-67
2022/08/24 06:58:09;;;;;;;37.40;34.20;;;;;;;21.45;100.00;101743.94;5064534;28;20020;-67
2022/08/24 07:00:34;;;;;;;34.58;31.63;;;;;;;21.60;100.00;101742.19;5057434;28;20047;-67
2022/08/24 07:03:00;;;;;;;34.47;31.42;;;;;;;21.76;100.00;101748.34;5060291;28;20025;-67
2022/08/24 07:05:26;;;;;;;31.60;29.00;;;;;;;21.94;100.00;101752.75;5054821;28;20115;-67
2022/08/24 07:07:52;;;;;;;37.40;34.05;;;;;;;22.11;100.00;101749.19;5061748;28;20020;-67
2022/08/24 07:10:17;;;;;;;34.63;31.60;;;;;;;22.27;100.00;101755.31;5059448;28;20016;-68
2022/08/24 07:12:43;;;;;;;31.35;28.38;;;;;;;22.42;100.00;101754.38;5053635;28;20094;-69
2022/08/24 07:15:09;;;;;;;30.17;27.48;;;;;;;22.59;100.00;101749.94;5052954;28;20371;-68
2022/08/24 07:17:34;;;;;;;28.90;26.40;;;;;;;22.78;100.00;101749.00;5063255;28;20093;-69
2022/08/24 07:19:59;;;;;;;27.92;25.58;;;;;;;22.97;99.81;101748.88;5066954;28;20017;-69
2022/08/24 07:22:25;;;;;;;27.95;25.48;;;;;;;23.17;97.67;101747.03;5061533;28;20596;-69
2022/08/24 07:24:50;;;;;;;26.20;23.70;;;;;;;23.35;96.35;101756.59;5065049;28;20073;-69
2022/08/24 07:27:15;;;;;;;26.35;23.95;;;;;;;23.57;95.30;101753.78;5067846;28;20392;-69
2022/08/24 07:29:40;;;;;;;27.00;24.45;;;;;;;23.78;92.99;101759.81;5064609;28;20044;-68
2022/08/24 07:32:06;;;;;;;24.73;22.33;;;;;;;24.04;91.66;101756.91;5058830;28;20468;-68
2022/08/24 07:34:32;;;;;;;24.67;22.25;;;;;;;24.31;86.62;101754.88;5066860;28;20070;-68
2022/08/24 07:36:59;;;;;;;25.70;23.50;;;;;;;24.58;88.15;101752.78;5066605;28;20028;-68
2022/08/24 07:39:25;;;;;;;27.38;24.92;;;;;;;24.93;84.49;101757.69;5065609;28;20081;-67
2022/08/24 07:41:50;;;;;;;24.42;22.25;;;;;;;25.28;82.81;101756.28;5082746;28;20468;-67
2022/08/24 07:44:16;;;;;;;24.45;22.00;;;;;;;25.60;80.82;101759.28;5072400;28;20037;-68
2022/08/24 07:46:41;;;;;;;23.55;21.45;;;;;;;25.92;77.67;101758.78;5077178;28;20384;-68
2022/08/24 07:49:08;;;;;;;22.88;20.88;;;;;;;26.25;77.12;101751.06;5074492;28;20148;-68
2022/08/24 07:51:34;;;;;;;18.77;17.00;;;;;;;26.55;73.44;101748.72;5069561;28;20028;-68
2022/08/24 07:54:01;;;;;;;18.50;16.85;;;;;;;26.82;69.92;101750.81;5057050;28;20377;-69
2022/08/24 07:56:27;;;;;;;17.30;15.65;;;;;;;27.06;67.48;101744.09;5051600;28;20086;-68
2022/08/24 07:58:53;;;;;;;16.70;15.13;;;;;;;27.33;67.98;101744.34;5061275;28;20496;-68
2022/08/24 08:01:20;;;;;;;19.48;16.17;;;;;;;27.66;66.16;101745.31;5054291;28;20025;-67
2022/08/24 08:03:46;;;;;;;18.00;16.15;;;;;;;27.97;63.77;101744.53;5050549;28;20461;-68
2022/08/24 08:06:11;;;;;;;12.85;11.57;;;;;;;27.97;60.99;101749.84;5055115;28;20069;-68
2022/08/24 08:08:40;;;;;;;13.77;11.25;;;;;;;28.16;61.95;101750.19;5063778;28;20513;-68
2022/08/24 08:11:07;;;;;;;12.43;10.50;;;;;;;28.44;59.74;101751.22;5070131;28;20586;-68
2022/08/24 08:13:33;;;;;;;12.40;10.20;;;;;;;28.63;58.13;101756.00;5067862;28;20073;-67
2022/08/24 08:15:59;;;;;;;11.40;10.30;;;;;;;28.76;57.86;101757.38;5067111;28;20506;-68
2022/08/24 08:18:26;;;;;;;10.48;9.43;;;;;;;28.89;57.86;101754.34;5067943;28;20577;-67
2022/08/24 08:20:51;;;;;;;9.65;8.60;;;;;;;29.11;56.56;101761.66;5053383;28;20492;-69
2022/08/24 08:26:01;;;;;;;12.07;8.15;;;;;;;29.58;55.36;101765.47;5064035;28;20031;-69
2022/08/24 08:28:31;;;;;;;7.85;6.45;;;;;;;29.77;53.13;101764.88;5062332;28;20542;-69
2022/08/24 08:31:01;;;;;;;6.97;6.28;;;;;;;29.87;53.11;101760.94;5085619;28;20027;-68
2022/08/24 08:33:27;;;;;;;10.68;9.48;;;;;;;29.76;51.91;101764.00;5087579;28;20039;-69
2022/08/24 08:36:03;;;;;;;10.35;8.20;;;;;;;29.81;53.74;101755.84;5087707;28;20081;-69
2022/08/24 08:38:28;;;;;;;9.20;6.45;;;;;;;29.84;52.81;101763.75;5064307;28;20060;-68
2022/08/24 08:41:16;;;;;;;9.57;6.07;;;;;;;29.98;53.36;101763.25;5071909;28;20048;-68
2022/08/24 08:43:45;;;;;;;7.65;5.80;;;;;;;30.11;52.76;101763.69;5061311;28;20056;-68
2022/08/24 08:46:46;;;;;;;9.57;5.93;;;;;;;30.23;52.65;101761.50;5067242;28;20024;-68
2022/08/24 08:49:39;;;;;;;7.97;5.13;;;;;;;30.26;50.53;101762.25;4997402;28;20054;-69
2022/08/24 08:52:23;;;;;;;4.15;3.60;;;;;;;30.31;49.26;101764.75;5059133;28;20040;-69
2022/08/24 08:54:54;;;;;;;3.83;3.03;;;;;;;30.34;50.48;101761.09;5067417;28;20031;-68
2022/08/24 08:57:31;;;;;;;6.05;3.50;;;;;;;30.41;47.62;101760.81;5060391;28;20025;-69
2022/08/24 09:00:17;;;;;;;3.25;2.95;;;;;;;30.48;47.84;101757.88;5067381;28;20031;-69
2022/08/24 09:02:43;;;;;;;4.57;3.92;;;;;;;30.63;48.57;101756.44;5051462;28;20490;-69
2022/08/24 09:05:29;;;;;;;5.07;3.80;;;;;;;30.60;49.12;101764.59;5062423;28;20278;-67
2022/08/24 09:08:00;;;;;;;3.30;2.63;;;;;;;30.67;47.34;101758.91;5060654;28;20029;-69
2022/08/24 09:10:48;;;;;;;2.05;1.80;;;;;;;30.62;46.48;101768.91;5058112;28;20032;-69
2022/08/24 09:13:32;;;;;;;5.55;3.80;;;;;;;30.55;46.84;101762.94;5052483;28;20028;-68
2022/08/24 09:16:09;;;;;;;3.67;2.25;;;;;;;30.51;47.52;101766.66;5057144;28;20243;-68
2022/08/24 09:18:50;;;;;;;3.65;2.60;;;;;;;30.36;46.65;101768.13;5049822;28;20021;-68
2022/08/24 09:21:31;;;;;;;4.45;3.72;;;;;;;30.29;47.68;101771.97;5065284;28;20492;-69
2022/08/24 09:24:25;;;;;;;3.60;2.58;;;;;;;30.15;48.77;101767.09;5064787;28;20032;-68
2022/08/24 09:27:15;;;;;;;3.08;1.77;;;;;;;29.92;48.57;101769.66;5059633;28;20067;-68
2022/08/24 09:30:15;;;;;;;2.45;1.88;;;;;;;29.70;48.45;101765.06;5065696;28;20024;-68
2022/08/24 09:33:21;;;;;;;4.70;3.67;;;;;;;29.40;50.90;101767.84;5060356;28;20083;-68
2022/08/24 09:35:49;;;;;;;4.15;3.75;;;;;;;29.25;51.40;101764.75;5015574;28;20064;-68
2022/08/24 09:38:36;;;;;;;5.32;4.60;;;;;;;29.09;51.41;101763.53;5066921;28;20024;-68
2022/08/24 09:41:23;;;;;;;5.10;3.90;;;;;;;28.95;52.73;101767.47;5067284;28;20094;-67
2022/08/24 09:44:13;;;;;;;4.35;3.58;;;;;;;28.99;53.34;101770.91;5060162;28;20036;-67
2022/08/24 09:47:03;;;;;;;6.45;4.90;;;;;;;29.16;53.27;101769.53;5064168;28;20475;-68
2022/08/24 09:49:31;;;;;;;5.65;4.30;;;;;;;29.40;53.34;101766.97;5059751;28;20071;-67
2022/08/24 09:52:08;;;;;;;6.47;3.55;;;;;;;29.65;52.97;101771.50;5062739;28;20424;-68
2022/08/24 09:54:42;;;;;;;3.25;2.72;;;;;;;29.77;52.15;101764.88;5065586;28;20071;-67
2022/08/24 09:57:19;;;;;;;5.50;2.40;;;;;;;29.82;51.29;101765.59;5084754;28;20024;-67
2022/08/24 10:00:08;;;;;;;2.65;2.00;;;;;;;29.87;49.46;101760.94;5065784;28;20035;-67
2022/08/24 10:02:52;;;;;;;3.10;2.30;;;;;;;29.94;48.75;101761.59;5056712;28;20021;-68
2022/08/24 10:05:53;;;;;;;2.17;1.77;;;;;;;30.04;49.99;101762.16;5068625;28;20107;-67
2022/08/24 10:08:47;;;;;;;3.85;2.70;;;;;;;30.13;49.57;101764.50;5067977;28;20108;-67
2022/08/24 10:11:34;;;;;;;3.05;2.65;;;;;;;30.13;48.36;101756.47;5068207;28;20028;-68
2022/08/24 10:14:11;;;;;;;3.50;3.20;;;;;;;30.15;48.09;101759.09;5067868;28;20029;-67
2022/08/24 10:16:41;;;;;;;4.05;2.40;;;;;;;30.24;49.15;101752.56;5068041;28;20082;-67
2022/08/24 10:19:36;;;;;;;3.85;1.80;;;;;;;30.38;50.03;101746.69;5064841;28;20400;-67
2022/08/24 10:22:37;;;;;;;2.65;2.15;;;;;;;30.56;48.63;101742.44;5033979;28;20488;-67
2022/08/24 10:25:21;;;;;;;1.85;1.73;;;;;;;30.76;48.73;101746.13;5056466;28;20044;-67
2022/08/24 10:27:58;;;;;;;3.15;2.33;;;;;;;30.85;47.09;101736.91;5066225;28;20471;-67
2022/08/24 10:30:48;;;;;;;2.45;1.95;;;;;;;30.81;47.73;101741.47;5066229;28;20023;-67
2022/08/24 10:33:21;;;;;;;2.33;1.80;;;;;;;30.79;47.15;101729.97;5066245;28;20294;-67
2022/08/24 10:36:14;;;;;;;2.78;2.50;;;;;;;30.62;46.53;101736.84;5067010;28;20036;-68
2022/08/24 10:42:04;;;;;;;2.10;1.80;;;;;;;29.99;48.28;101737.41;5082871;28;20415;-67
2022/08/24 10:44:48;;;;;;;2.78;1.33;;;;;;;29.71;48.25;101739.25;5070668;28;20031;-67
2022/08/24 10:47:27;;;;;;;1.88;1.35;;;;;;;29.58;48.74;101746.78;5089669;28;20054;-67
2022/08/24 10:50:11;;;;;;;2.20;1.30;;;;;;;29.25;48.09;101735.41;5090203;28;20032;-67
2022/08/24 10:53:10;;;;;;;1.45;1.30;;;;;;;29.29;49.37;101732.66;5063584;28;20048;-68
2022/08/24 10:55:36;;;;;;;1.73;0.90;;;;;;;29.35;48.72;101732.44;5089914;28;20464;-67
2022/08/24 10:58:20;;;;;;;2.08;1.17;;;;;;;29.38;48.68;101732.31;5089982;28;20475;-67
2022/08/24 11:00:45;;;;;;;2.42;1.08;;;;;;;29.64;49.37;101737.72;5089695;28;20036;-67
2022/08/24 11:03:13;;;;;;;2.17;1.30;;;;;;;29.92;48.35;101731.41;5089250;28;20024;-67
2022/08/24 11:05:52;;;;;;;1.77;1.35;;;;;;;30.15;46.74;101725.22;5090058;28;20387;-67
2022/08/24 11:08:23;;;;;;;1.65;1.50;;;;;;;30.35;46.95;101722.75;5089951;28;20035;-67
2022/08/24 11:11:10;;;;;;;2.42;1.30;;;;;;;30.67;46.41;101712.63;5089289;28;20051;-66
2022/08/24 11:13:47;;;;;;;1.92;0.85;;;;;;;30.96;46.20;101723.09;5089537;28;20032;-67
2022/08/24 11:16:22;;;;;;;1.35;1.25;;;;;;;31.11;44.82;101717.09;5088935;28;20031;-67
2022/08/24 11:18:54;;;;;;;1.88;1.10;;;;;;;31.05;44.66;101717.34;5088802;28;20108;-67
2022/08/24 11:21:44;;;;;;;2.60;1.40;;;;;;;30.88;45.34;101708.22;5089602;28;20107;-67
2022/08/24 11:24:23;;;;;;;;;;;;;;;30.88;45.31;101716.25;5089468;28;20035;-67
2022/08/24 11:27:17;;;;;;;2.33;1.13;;;;;;;30.98;45.41;101705.19;5089062;28;19912;-67
2022/08/24 11:29:48;;;;;;;2.33;1.17;;;;;;;31.09;45.71;101713.63;5056307;28;20074;-64
2022/08/24 11:32:42;;;;;;;2.47;1.10;;;;;;;31.14;45.42;101706.25;5062318;28;20029;-64
2022/08/24 11:35:32;;;;;;;3.55;1.63;;;;;;;31.11;44.79;101710.88;5061192;28;20060;-64